map of VQQ home
VQQ - Airport
Location
City:  Jacksonville, Florida, United States
Name:Cecil Airport
ICAO:KVQQ
IATA:VQQ
FAA LID:VQQ

Details
Type:Airport (Airfield)
Use:Public/Civil
Latitude:3013'08"N (30.218778)
Longitude:8152'38"W (-81.877166)
Datum:WGS 1984
Elevation:79 ft (24 m)
Variation:6.35W (WMM2015v2 magnetic declination)
-0.06 annual change
Runways:4
Longest:12503 × 200 ft (3811 × 61 m), paved

Time
Time Zone:UTC-5 (DST-4)
Local Time:

Weather
METAR:KVQQ 041350Z 35004KT 10SM OVC010 15/13 A3010
TAF:KVQQ 041121Z 0412/0512 VRB03KT P6SM SCT007 OVC012
FM041700 06005KT P6SM SCT015 BKN025
FM041900 09005KT P6SM BKN250
FM050000 VRB02KT P6SM SCT250
FM050800 00000KT 3SM BR FEW250

Related Locations
Nearby:
Farthest:USL: 11473 mi / 18463 km
Useless Loop, WA, AU

Find:

   beyond  
but within

Other Information
Maps:
NOTAMs:
Links:
Sources:

  
  • flag of United States
  • flag of Florida
  

Airport Diagram

Airport diagram for VQQ

Airport diagram PDF from FAA

Sectional Chart

Flight Planning
at skyvector.com

Satellite Image

Google Maps Satellite view

 

Copyright © 2004-2019 Karl L. Swartz. All rights reserved.
The Great Circle Mapper name and logo are trademarks of the Great Circle Mapper.
All other trademarks mentioned herein belong to their respective owners.
Please see credits for attibutions and further copyright information.

  Follow gcmap on Facebook Follow gcmap on Twitter GCmap on LinkedIn

hCard Microformat

Geo Microformat